createdAt,value
2022-12-08T00:02:27.365Z,2.90
2022-12-08T00:05:13.569Z,2.90
2022-12-08T00:07:59.490Z,2.90
2022-12-08T00:10:48.562Z,2.90
2022-12-08T00:13:16.739Z,2.90
2022-12-08T00:15:48.683Z,2.90
2022-12-08T00:18:17.076Z,2.90
2022-12-08T00:20:45.918Z,2.90
2022-12-08T00:23:14.835Z,2.90
2022-12-08T00:25:43.054Z,2.90
2022-12-08T00:28:11.784Z,2.90
2022-12-08T00:30:41.929Z,2.80
2022-12-08T00:33:13.103Z,2.80
2022-12-08T00:35:43.438Z,2.80
2022-12-08T00:38:12.021Z,2.80
2022-12-08T00:40:45.469Z,2.80
2022-12-08T00:43:13.848Z,2.80
2022-12-08T00:45:42.413Z,2.70
2022-12-08T00:48:13.190Z,2.80
2022-12-08T00:50:42.502Z,2.80
2022-12-08T00:53:10.994Z,2.80
2022-12-08T00:55:39.394Z,2.80
2022-12-08T00:58:07.674Z,2.80
2022-12-08T01:00:35.922Z,2.80
2022-12-08T01:03:04.427Z,2.80
2022-12-08T01:05:35.105Z,2.80
2022-12-08T01:08:03.366Z,2.70
2022-12-08T01:10:31.846Z,2.80
2022-12-08T01:13:00.298Z,2.70
2022-12-08T01:15:29.052Z,2.70
2022-12-08T01:17:58.461Z,2.70
2022-12-08T01:20:26.978Z,2.70
2022-12-08T01:22:57.056Z,2.70
2022-12-08T01:25:27.136Z,2.70
2022-12-08T01:27:55.994Z,2.70
2022-12-08T01:30:24.506Z,2.70
2022-12-08T01:32:54.131Z,2.70
2022-12-08T01:35:22.428Z,2.70
2022-12-08T01:37:51.258Z,2.70
2022-12-08T01:40:20.986Z,2.70
2022-12-08T01:42:50.291Z,2.70
2022-12-08T01:45:25.768Z,2.70
2022-12-08T01:47:58.381Z,2.60
2022-12-08T01:50:29.026Z,2.60
2022-12-08T01:53:01.103Z,2.60
2022-12-08T01:55:35.762Z,2.60
2022-12-08T01:58:12.479Z,2.60
2022-12-08T02:00:40.760Z,2.60
2022-12-08T02:03:13.612Z,2.60
2022-12-08T02:05:42.419Z,2.60
2022-12-08T02:08:13.865Z,2.60
2022-12-08T02:10:44.914Z,2.60
2022-12-08T02:13:17.783Z,2.60
2022-12-08T02:15:59.318Z,2.60
2022-12-08T02:19:02.112Z,2.60
2022-12-08T02:21:43.224Z,2.60
2022-12-08T02:24:18.298Z,2.60
2022-12-08T02:27:17.135Z,2.60
2022-12-08T02:30:14.330Z,2.60
2022-12-08T02:33:04.975Z,2.60
2022-12-08T02:39:56.848Z,2.60
2022-12-08T02:42:34.333Z,2.60
2022-12-08T02:45:09.561Z,2.60
2022-12-08T02:47:38.548Z,2.60
2022-12-08T02:50:09.198Z,2.60
2022-12-08T02:52:43.344Z,2.60
2022-12-08T02:55:23.463Z,2.60
2022-12-08T02:58:06.725Z,2.60
2022-12-08T03:00:47.607Z,2.60
2022-12-08T03:03:22.123Z,2.60
2022-12-08T03:06:06.689Z,2.60
2022-12-08T03:08:43.407Z,2.60
2022-12-08T03:11:23.239Z,2.60
2022-12-08T03:13:55.388Z,2.60
2022-12-08T03:16:26.470Z,2.60
2022-12-08T03:19:00.942Z,2.60
2022-12-08T03:21:30.816Z,2.60
2022-12-08T03:24:04.620Z,2.50
2022-12-08T03:26:40.223Z,2.50
2022-12-08T03:29:09.117Z,2.50
2022-12-08T03:31:43.064Z,2.50
2022-12-08T03:34:13.693Z,2.50
2022-12-08T03:36:42.376Z,2.50
2022-12-08T03:39:10.651Z,2.50
2022-12-08T03:41:40.357Z,2.50
2022-12-08T03:44:09.204Z,2.40
2022-12-08T03:46:37.394Z,2.50
2022-12-08T03:49:05.649Z,2.50
2022-12-08T03:51:34.226Z,2.40
2022-12-08T03:54:02.871Z,2.50
2022-12-08T03:56:32.956Z,2.40
2022-12-08T03:59:03.018Z,2.40
2022-12-08T04:01:31.952Z,2.40
2022-12-08T04:04:00.824Z,2.40
2022-12-08T04:06:29.279Z,2.40
2022-12-08T04:08:58.170Z,2.40
2022-12-08T04:11:28.608Z,2.30
2022-12-08T04:13:57.012Z,2.30
2022-12-08T04:16:28.558Z,2.30
2022-12-08T04:18:57.999Z,2.30
2022-12-08T04:21:26.908Z,2.30
2022-12-08T04:24:00.765Z,2.40
2022-12-08T04:26:29.785Z,2.30
2022-12-08T04:28:58.573Z,2.30
2022-12-08T04:31:28.263Z,2.30
2022-12-08T04:33:57.131Z,2.30
2022-12-08T04:36:25.709Z,2.30
2022-12-08T04:38:54.389Z,2.30
2022-12-08T04:41:23.897Z,2.00
2022-12-08T04:43:52.309Z,2.10
2022-12-08T04:46:20.825Z,2.20
2022-12-08T04:48:50.445Z,2.20
2022-12-08T04:51:20.618Z,2.20
2022-12-08T04:53:49.524Z,2.20
2022-12-08T04:56:20.654Z,2.20
2022-12-08T04:58:48.786Z,2.20
2022-12-08T05:01:18.082Z,2.20
2022-12-08T05:03:47.360Z,2.20
2022-12-08T05:06:16.853Z,2.20
2022-12-08T05:08:45.950Z,2.20
2022-12-08T05:11:14.736Z,2.20
2022-12-08T05:13:43.181Z,2.20
2022-12-08T05:16:13.445Z,2.10
2022-12-08T05:18:43.223Z,2.10
2022-12-08T05:21:12.409Z,2.20
2022-12-08T05:23:42.101Z,2.20
2022-12-08T05:26:11.289Z,2.20
2022-12-08T05:28:41.732Z,2.10
2022-12-08T05:31:11.041Z,2.10
2022-12-08T05:33:39.387Z,2.10
2022-12-08T05:36:09.760Z,2.20
2022-12-08T05:38:38.883Z,2.30
2022-12-08T05:41:09.222Z,2.20
2022-12-08T05:43:38.101Z,2.30
2022-12-08T05:46:06.744Z,2.30
2022-12-08T05:48:35.491Z,2.30
2022-12-08T05:51:04.285Z,2.30
2022-12-08T05:53:32.501Z,2.30
2022-12-08T05:56:00.828Z,2.30
2022-12-08T05:58:30.625Z,2.30
2022-12-08T06:00:59.039Z,2.30
2022-12-08T06:03:27.341Z,2.30
2022-12-08T06:05:56.278Z,2.30
2022-12-08T06:08:24.758Z,2.30
2022-12-08T06:10:53.202Z,2.30
2022-12-08T06:13:21.405Z,2.30
2022-12-08T06:15:51.084Z,2.20
2022-12-08T06:18:20.017Z,2.20
2022-12-08T06:20:48.929Z,2.20
2022-12-08T06:23:17.872Z,2.20
2022-12-08T06:25:46.549Z,2.10
2022-12-08T06:28:15.388Z,2.20
2022-12-08T06:30:44.778Z,2.20
2022-12-08T06:33:14.934Z,2.10
2022-12-08T06:35:43.424Z,2.20
2022-12-08T06:38:11.714Z,2.20
2022-12-08T06:40:44.014Z,2.20
2022-12-08T06:43:34.262Z,2.10
2022-12-08T06:46:05.533Z,2.20
2022-12-08T06:48:35.291Z,2.20
2022-12-08T06:51:08.971Z,2.10
2022-12-08T06:53:40.024Z,2.10
2022-12-08T06:56:09.209Z,2.20
2022-12-08T06:58:37.878Z,2.10
2022-12-08T07:01:08.116Z,2.10
2022-12-08T07:03:38.867Z,2.20
2022-12-08T07:06:08.305Z,2.20
2022-12-08T07:08:36.672Z,2.10
2022-12-08T07:11:09.187Z,2.10
2022-12-08T07:13:37.626Z,2.10
2022-12-08T07:16:09.265Z,2.20
2022-12-08T07:18:40.036Z,2.10
2022-12-08T07:21:11.132Z,2.20
2022-12-08T07:23:39.784Z,2.20
2022-12-08T07:29:01.471Z,2.20
2022-12-08T07:31:30.395Z,2.20
2022-12-08T07:34:00.069Z,2.30
2022-12-08T07:36:28.894Z,2.20
2022-12-08T07:38:57.381Z,2.30
2022-12-08T07:41:27.288Z,2.30
2022-12-08T07:43:57.890Z,2.30
2022-12-08T07:46:27.028Z,2.30
2022-12-08T07:48:55.785Z,2.30
2022-12-08T07:51:26.217Z,2.40
2022-12-08T07:53:55.249Z,2.40
2022-12-08T07:56:24.340Z,2.40
2022-12-08T07:58:52.993Z,2.40
2022-12-08T08:01:27.419Z,2.50
2022-12-08T08:03:57.962Z,2.50
2022-12-08T08:06:28.120Z,2.50
2022-12-08T08:08:56.612Z,2.40
2022-12-08T08:11:25.543Z,2.60
2022-12-08T08:13:54.552Z,2.50
2022-12-08T08:16:23.081Z,2.60
2022-12-08T08:18:52.656Z,2.60
2022-12-08T08:21:45.194Z,2.60
2022-12-08T08:24:12.800Z,2.60
2022-12-08T08:26:41.734Z,2.60
2022-12-08T08:29:10.216Z,2.70
2022-12-08T08:31:38.609Z,2.70
2022-12-08T08:34:08.261Z,2.70
2022-12-08T08:36:39.928Z,2.80
2022-12-08T08:39:08.867Z,2.80
2022-12-08T08:41:38.757Z,2.80
2022-12-08T08:44:07.745Z,2.80
2022-12-08T08:46:36.047Z,2.80
2022-12-08T08:49:05.211Z,2.90
2022-12-08T08:51:35.215Z,2.90
2022-12-08T08:54:04.208Z,3.00
2022-12-08T08:56:33.403Z,3.00
2022-12-08T08:59:03.841Z,3.00
2022-12-08T09:01:32.764Z,3.10
2022-12-08T09:04:01.714Z,3.10
2022-12-08T09:06:30.641Z,3.10
2022-12-08T09:08:59.584Z,3.20
2022-12-08T09:11:27.914Z,3.20
2022-12-08T09:13:56.867Z,3.20
2022-12-08T09:16:26.685Z,3.20
2022-12-08T09:18:54.959Z,3.20
2022-12-08T09:21:27.009Z,3.20
2022-12-08T09:23:57.031Z,3.30
2022-12-08T09:26:26.348Z,3.30
2022-12-08T09:28:57.646Z,3.40
2022-12-08T09:31:28.251Z,3.50
2022-12-08T09:33:57.295Z,3.50
2022-12-08T09:36:26.253Z,3.50
2022-12-08T09:38:54.788Z,3.50
2022-12-08T09:41:37.544Z,3.50
2022-12-08T09:44:28.028Z,3.50
2022-12-08T09:46:59.216Z,3.50
2022-12-08T09:49:38.201Z,3.60
2022-12-08T09:52:07.569Z,3.60
2022-12-08T09:54:36.975Z,3.70
2022-12-08T09:57:12.451Z,3.70
2022-12-08T09:59:41.614Z,3.70
2022-12-08T10:02:22.080Z,3.70
2022-12-08T10:04:51.161Z,3.70
2022-12-08T10:07:28.450Z,3.80
2022-12-08T10:10:05.344Z,3.80
2022-12-08T10:12:43.639Z,3.80
2022-12-08T10:15:42.280Z,3.80
2022-12-08T10:18:18.915Z,3.80
2022-12-08T10:20:50.665Z,3.80
2022-12-08T10:23:30.908Z,3.80
2022-12-08T10:26:03.637Z,3.90
2022-12-08T10:28:36.708Z,3.90
2022-12-08T10:31:07.446Z,3.90
2022-12-08T10:33:37.134Z,4.00
2022-12-08T10:36:07.844Z,4.00
2022-12-08T10:38:38.688Z,4.00
2022-12-08T10:41:13.901Z,4.00
2022-12-08T10:43:46.152Z,4.10
2022-12-08T10:46:17.369Z,4.10
2022-12-08T10:48:53.053Z,4.10
2022-12-08T10:51:28.100Z,4.10
2022-12-08T10:53:57.028Z,4.10
2022-12-08T10:56:27.679Z,4.00
2022-12-08T10:59:13.669Z,4.10
2022-12-08T11:01:44.144Z,4.20
2022-12-08T11:04:19.763Z,4.20
2022-12-08T11:06:49.460Z,4.30
2022-12-08T11:09:37.911Z,4.20
2022-12-08T11:12:14.203Z,4.30
2022-12-08T11:14:50.686Z,4.30
2022-12-08T11:17:27.308Z,4.30
2022-12-08T11:20:04.298Z,4.30
2022-12-08T11:22:35.645Z,4.30
2022-12-08T11:25:11.500Z,4.30
2022-12-08T11:27:42.058Z,4.30
2022-12-08T11:30:16.949Z,4.30
2022-12-08T11:32:47.374Z,4.40
2022-12-08T11:35:24.055Z,4.40
2022-12-08T11:37:54.504Z,4.40
2022-12-08T11:40:36.892Z,4.40
2022-12-08T11:43:14.307Z,4.40
2022-12-08T11:45:43.295Z,4.40
2022-12-08T11:48:16.115Z,4.40
2022-12-08T11:50:51.261Z,4.50
2022-12-08T11:53:28.612Z,4.50
2022-12-08T11:56:01.761Z,4.40
2022-12-08T11:58:37.596Z,4.50
2022-12-08T12:01:06.323Z,4.40
2022-12-08T12:03:42.223Z,4.50
2022-12-08T12:09:34.153Z,4.50
2022-12-08T12:12:16.681Z,4.50
2022-12-08T12:15:46.779Z,4.50
2022-12-08T12:18:25.610Z,4.70
2022-12-08T12:20:57.061Z,4.70
2022-12-08T12:23:37.508Z,4.70
2022-12-08T12:26:08.677Z,4.70
2022-12-08T12:28:46.473Z,4.80
2022-12-08T12:31:19.122Z,4.80
2022-12-08T12:33:49.331Z,4.80
2022-12-08T12:36:18.152Z,4.70
2022-12-08T12:39:04.046Z,4.80
2022-12-08T12:41:37.424Z,4.70
2022-12-08T12:44:24.625Z,4.60
2022-12-08T12:46:56.673Z,4.70
2022-12-08T12:49:54.865Z,4.70
2022-12-08T12:52:43.295Z,4.70
2022-12-08T12:55:52.462Z,4.80
2022-12-08T12:58:39.004Z,4.80
2022-12-08T13:01:53.938Z,4.80
2022-12-08T13:04:31.682Z,4.70
2022-12-08T13:07:00.682Z,4.80
2022-12-08T13:09:36.102Z,4.80
2022-12-08T13:12:11.742Z,4.80
2022-12-08T13:14:47.842Z,4.80
2022-12-08T13:17:30.466Z,4.80
2022-12-08T13:20:00.881Z,4.80
2022-12-08T13:22:50.165Z,4.80
2022-12-08T13:25:46.334Z,4.80
2022-12-08T13:28:27.193Z,4.70
2022-12-08T13:30:57.755Z,4.80
2022-12-08T13:33:32.207Z,4.70
2022-12-08T13:36:25.429Z,4.80
2022-12-08T13:38:58.018Z,4.70
2022-12-08T13:41:35.332Z,4.70
2022-12-08T13:45:03.599Z,4.70
2022-12-08T13:56:59.554Z,4.70
2022-12-08T13:58:35.544Z,4.70
2022-12-08T14:01:13.467Z,4.60
2022-12-08T14:04:12.834Z,4.70
2022-12-08T14:06:45.512Z,4.60
2022-12-08T14:09:19.376Z,4.60
2022-12-08T14:11:52.454Z,4.60
2022-12-08T14:14:53.897Z,4.60
2022-12-08T14:17:14.827Z,4.50
2022-12-08T14:19:46.323Z,4.50
2022-12-08T14:22:18.051Z,4.50
2022-12-08T14:24:48.293Z,4.50
2022-12-08T14:27:19.038Z,4.50
2022-12-08T14:29:49.721Z,4.40
2022-12-08T14:32:27.344Z,4.40
2022-12-08T14:34:57.822Z,4.40
2022-12-08T14:37:28.794Z,4.40
2022-12-08T14:40:02.170Z,4.40
2022-12-08T14:42:44.138Z,4.30
2022-12-08T14:45:14.798Z,4.30
2022-12-08T14:47:45.807Z,4.30
2022-12-08T14:50:42.375Z,4.30
2022-12-08T14:53:19.112Z,4.20
2022-12-08T14:55:48.797Z,4.20
2022-12-08T14:58:24.354Z,4.20
2022-12-08T15:00:58.417Z,4.10
2022-12-08T15:03:31.175Z,4.20
2022-12-08T15:06:04.797Z,4.10
2022-12-08T15:08:33.533Z,4.10
2022-12-08T15:11:20.583Z,4.00
2022-12-08T15:13:50.437Z,4.00
2022-12-08T15:16:32.080Z,4.00
2022-12-08T15:19:18.180Z,3.90
2022-12-08T15:21:48.273Z,3.90
2022-12-08T15:24:18.713Z,3.90
2022-12-08T15:26:49.098Z,3.80
2022-12-08T15:29:22.702Z,3.80
2022-12-08T15:31:52.810Z,3.70
2022-12-08T15:34:23.020Z,3.60
2022-12-08T15:36:53.336Z,3.60
2022-12-08T15:39:33.890Z,3.60
2022-12-08T15:42:05.188Z,3.70
2022-12-08T15:44:33.539Z,3.60
2022-12-08T15:47:02.426Z,3.60
2022-12-08T15:49:35.081Z,3.50
2022-12-08T15:52:11.124Z,3.40
2022-12-08T15:54:40.309Z,3.40
2022-12-08T15:57:35.943Z,3.40
2022-12-08T16:00:51.945Z,3.40
2022-12-08T16:04:02.707Z,3.30
2022-12-08T16:09:12.371Z,3.20
2022-12-08T16:12:08.347Z,3.20
2022-12-08T16:17:27.132Z,3.10
2022-12-08T16:19:55.455Z,3.10
2022-12-08T16:25:20.736Z,3.00
2022-12-08T16:28:01.273Z,3.00
2022-12-08T16:30:29.961Z,2.90
2022-12-08T16:32:57.980Z,2.80
2022-12-08T16:35:26.023Z,2.80
2022-12-08T16:37:55.854Z,2.80
2022-12-08T16:40:24.620Z,2.80
2022-12-08T16:42:51.699Z,2.80
2022-12-08T16:45:22.487Z,2.70
2022-12-08T16:47:52.170Z,2.70
2022-12-08T16:50:22.646Z,2.70
2022-12-08T16:52:56.902Z,2.70
2022-12-08T16:55:27.357Z,2.70
2022-12-08T16:57:56.713Z,2.70
2022-12-08T17:00:27.642Z,2.60
2022-12-08T17:02:57.133Z,2.50
2022-12-08T17:05:27.332Z,2.40
2022-12-08T17:07:56.145Z,2.30
2022-12-08T17:10:28.374Z,2.30
2022-12-08T17:12:57.641Z,2.30
2022-12-08T17:15:27.158Z,2.30
2022-12-08T17:17:56.257Z,2.40
2022-12-08T17:20:26.958Z,2.40
2022-12-08T17:22:56.296Z,2.30
2022-12-08T17:25:25.784Z,2.20
2022-12-08T17:27:54.362Z,2.20
2022-12-08T17:30:22.627Z,2.10
2022-12-08T17:32:52.840Z,2.10
2022-12-08T17:35:21.583Z,2.10
2022-12-08T17:37:49.607Z,2.10
2022-12-08T17:40:17.803Z,2.10
2022-12-08T17:42:47.333Z,2.10
2022-12-08T17:45:15.659Z,2.20
2022-12-08T17:47:44.246Z,2.20
2022-12-08T17:50:12.618Z,2.10
2022-12-08T17:52:41.204Z,2.00
2022-12-08T17:55:10.999Z,2.00
2022-12-08T17:57:39.214Z,1.90
2022-12-08T18:00:11.716Z,1.90
2022-12-08T18:05:31.943Z,2.00
2022-12-08T18:08:00.625Z,1.90
2022-12-08T18:10:29.094Z,1.90
2022-12-08T18:12:59.024Z,1.80
2022-12-08T18:15:29.013Z,1.80
2022-12-08T18:17:57.061Z,1.80
2022-12-08T18:20:25.218Z,1.80
2022-12-08T18:22:53.353Z,1.90
2022-12-08T18:25:21.784Z,2.00
2022-12-08T18:27:50.328Z,2.00
2022-12-08T18:30:19.766Z,1.90
2022-12-08T18:32:54.212Z,1.90
2022-12-08T18:35:25.747Z,1.90
2022-12-08T18:37:54.088Z,1.80
2022-12-08T18:40:22.516Z,1.80
2022-12-08T18:42:51.263Z,1.90
2022-12-08T18:45:22.553Z,1.80
2022-12-08T18:47:52.928Z,1.90
2022-12-08T18:50:21.183Z,1.90
2022-12-08T18:52:49.483Z,1.80
2022-12-08T18:55:17.656Z,1.80
2022-12-08T18:57:46.315Z,1.80
2022-12-08T19:00:18.378Z,1.70
2022-12-08T19:02:47.459Z,1.80
2022-12-08T19:05:19.432Z,1.70
2022-12-08T19:07:48.356Z,1.60
2022-12-08T19:10:18.333Z,1.70
2022-12-08T19:12:46.581Z,1.70
2022-12-08T19:15:14.711Z,1.70
2022-12-08T19:17:43.372Z,1.70
2022-12-08T19:20:12.806Z,1.70
2022-12-08T19:22:42.208Z,1.70
2022-12-08T19:25:11.354Z,1.70
2022-12-08T19:27:39.413Z,1.70
2022-12-08T19:30:09.083Z,1.60
2022-12-08T19:32:37.364Z,1.60
2022-12-08T19:35:07.435Z,1.60
2022-12-08T19:37:36.137Z,1.60
2022-12-08T19:40:25.310Z,1.50
2022-12-08T19:43:11.502Z,1.50
2022-12-08T19:45:39.735Z,1.50
2022-12-08T19:48:07.855Z,1.40
2022-12-08T19:50:39.042Z,1.40
2022-12-08T19:53:09.520Z,1.40
2022-12-08T19:55:39.774Z,1.40
2022-12-08T19:58:08.930Z,1.40
2022-12-08T20:00:38.316Z,1.30
2022-12-08T20:03:07.523Z,1.30
2022-12-08T20:05:37.516Z,1.30
2022-12-08T20:08:05.977Z,1.30
2022-12-08T20:10:36.325Z,1.20
2022-12-08T20:13:24.317Z,1.20
2022-12-08T20:15:53.762Z,1.20
2022-12-08T20:18:22.485Z,1.20
2022-12-08T20:20:52.198Z,1.20
2022-12-08T20:23:20.867Z,1.20
2022-12-08T20:25:48.880Z,1.10
2022-12-08T20:28:19.084Z,1.20
2022-12-08T20:30:48.998Z,1.20
2022-12-08T20:33:19.436Z,1.20
2022-12-08T20:35:48.637Z,1.20
2022-12-08T20:38:36.868Z,1.20
2022-12-08T20:41:09.451Z,1.20
2022-12-08T20:43:39.450Z,1.20
2022-12-08T20:46:08.321Z,1.20
2022-12-08T20:48:37.001Z,1.20
2022-12-08T20:51:05.384Z,1.20
2022-12-08T20:53:33.576Z,1.20
2022-12-08T20:56:02.901Z,1.20
2022-12-08T20:58:31.105Z,1.20
2022-12-08T21:03:50.757Z,1.10
2022-12-08T21:06:22.462Z,1.00
2022-12-08T21:08:51.132Z,1.00
2022-12-08T21:11:19.273Z,1.00
2022-12-08T21:13:47.874Z,1.00
2022-12-08T21:16:17.650Z,1.00
2022-12-08T21:18:46.364Z,1.00
2022-12-08T21:21:17.501Z,1.00
2022-12-08T21:23:46.004Z,0.90
2022-12-08T21:26:15.608Z,0.90
2022-12-08T21:28:44.448Z,0.90
2022-12-08T21:31:16.035Z,0.80
2022-12-08T21:33:46.105Z,0.80
2022-12-08T21:36:17.121Z,0.80
2022-12-08T21:38:46.834Z,0.80
2022-12-08T21:41:16.581Z,0.70
2022-12-08T21:43:45.959Z,0.70
2022-12-08T21:46:20.742Z,0.70
2022-12-08T21:48:50.598Z,0.70
2022-12-08T21:51:18.781Z,0.70
2022-12-08T21:53:46.958Z,0.70
2022-12-08T21:56:15.025Z,0.70
2022-12-08T21:58:43.077Z,0.70
2022-12-08T22:01:13.950Z,0.70
2022-12-08T22:03:42.535Z,0.70
2022-12-08T22:06:13.923Z,0.70
2022-12-08T22:08:42.830Z,0.60
2022-12-08T22:11:12.127Z,0.60
2022-12-08T22:13:42.131Z,0.60
2022-12-08T22:16:12.833Z,0.50
2022-12-08T22:18:42.188Z,0.50
2022-12-08T22:21:15.895Z,0.50
2022-12-08T22:23:45.256Z,0.50
2022-12-08T22:26:13.962Z,0.40
2022-12-08T22:28:43.387Z,0.50
2022-12-08T22:31:13.724Z,0.40
2022-12-08T22:33:42.932Z,0.40
2022-12-08T22:36:16.545Z,0.40
2022-12-08T22:38:45.032Z,0.40
2022-12-08T22:41:13.478Z,0.40
2022-12-08T22:43:42.746Z,0.40
2022-12-08T22:46:12.768Z,0.30
2022-12-08T22:48:41.192Z,0.30
2022-12-08T22:51:11.042Z,0.30
2022-12-08T22:53:41.182Z,0.30
2022-12-08T22:56:11.787Z,0.30
2022-12-08T22:58:41.358Z,0.30
2022-12-08T23:01:10.322Z,0.20
2022-12-08T23:03:38.492Z,0.20
2022-12-08T23:06:13.501Z,0.20
2022-12-08T23:08:43.031Z,0.30
2022-12-08T23:11:11.737Z,0.20
2022-12-08T23:13:40.697Z,0.20
2022-12-08T23:16:09.622Z,0.10
2022-12-08T23:18:39.364Z,0.10
2022-12-08T23:21:09.151Z,0.10
2022-12-08T23:23:37.651Z,0.10
2022-12-08T23:26:17.020Z,0.10
2022-12-08T23:28:45.312Z,0.10
2022-12-08T23:31:13.544Z,0.10
2022-12-08T23:33:42.330Z,0.00
2022-12-08T23:36:12.961Z,0.10
2022-12-08T23:38:41.054Z,0.00
2022-12-08T23:41:13.128Z,0.00
2022-12-08T23:43:45.559Z,0.10
2022-12-08T23:46:14.525Z,0.00
2022-12-08T23:48:42.814Z,0.00
2022-12-08T23:51:11.106Z,0.00
2022-12-08T23:53:39.817Z,0.00
2022-12-08T23:56:11.653Z,0.00
2022-12-08T23:58:41.171Z,-0.10
